sensor_id;sensor_type;location;lat;lon;timestamp;temperature;humidity
20504;DHT22;10410;51.046;6.980;2023-07-31T00:05:33;16.70;99.90
20504;DHT22;10410;51.046;6.980;2023-07-31T00:12:34;16.70;99.90
20504;DHT22;10410;51.046;6.980;2023-07-31T00:19:34;16.80;99.90
20504;DHT22;10410;51.046;6.980;2023-07-31T00:26:35;16.80;99.90
20504;DHT22;10410;51.046;6.980;2023-07-31T00:33:35;16.90;99.90
20504;DHT22;10410;51.046;6.980;2023-07-31T00:40:37;16.90;99.90
20504;DHT22;10410;51.046;6.980;2023-07-31T00:47:37;16.90;99.90
20504;DHT22;10410;51.046;6.980;2023-07-31T00:54:38;17.00;99.90
20504;DHT22;10410;51.046;6.980;2023-07-31T01:01:38;17.10;99.90
20504;DHT22;10410;51.046;6.980;2023-07-31T01:16:07;17.10;99.90
20504;DHT22;10410;51.046;6.980;2023-07-31T01:30:44;17.20;99.90
20504;DHT22;10410;51.046;6.980;2023-07-31T01:37:47;17.20;99.90
20504;DHT22;10410;51.046;6.980;2023-07-31T01:44:48;17.30;99.90
20504;DHT22;10410;51.046;6.980;2023-07-31T01:51:48;17.30;99.90
20504;DHT22;10410;51.046;6.980;2023-07-31T01:58:49;17.30;99.90
20504;DHT22;10410;51.046;6.980;2023-07-31T02:05:50;17.40;99.90
20504;DHT22;10410;51.046;6.980;2023-07-31T02:12:50;17.40;99.90
20504;DHT22;10410;51.046;6.980;2023-07-31T02:19:51;17.40;99.90
20504;DHT22;10410;51.046;6.980;2023-07-31T02:26:51;17.40;99.90
20504;DHT22;10410;51.046;6.980;2023-07-31T02:33:52;17.40;99.90
20504;DHT22;10410;51.046;6.980;2023-07-31T02:40:52;17.40;99.90
20504;DHT22;10410;51.046;6.980;2023-07-31T02:47:53;17.40;99.90
20504;DHT22;10410;51.046;6.980;2023-07-31T02:54:54;17.40;99.90
20504;DHT22;10410;51.046;6.980;2023-07-31T03:01:54;17.40;99.90
20504;DHT22;10410;51.046;6.980;2023-07-31T03:08:55;17.40;99.90
20504;DHT22;10410;51.046;6.980;2023-07-31T03:15:56;17.40;99.90
20504;DHT22;10410;51.046;6.980;2023-07-31T03:22:56;17.40;99.90
20504;DHT22;10410;51.046;6.980;2023-07-31T03:29:57;17.50;99.90
20504;DHT22;10410;51.046;6.980;2023-07-31T03:36:58;17.50;99.90
20504;DHT22;10410;51.046;6.980;2023-07-31T03:43:58;17.50;99.90
20504;DHT22;10410;51.046;6.980;2023-07-31T03:50:59;17.50;99.90
20504;DHT22;10410;51.046;6.980;2023-07-31T03:57:59;17.50;99.90
20504;DHT22;10410;51.046;6.980;2023-07-31T04:05:00;17.50;99.90
20504;DHT22;10410;51.046;6.980;2023-07-31T04:12:00;17.60;99.90
20504;DHT22;10410;51.046;6.980;2023-07-31T04:19:01;17.60;99.90
20504;DHT22;10410;51.046;6.980;2023-07-31T04:26:02;17.60;99.90
20504;DHT22;10410;51.046;6.980;2023-07-31T04:33:03;17.60;99.90
20504;DHT22;10410;51.046;6.980;2023-07-31T04:40:04;17.60;99.90
20504;DHT22;10410;51.046;6.980;2023-07-31T04:47:05;17.60;99.90
20504;DHT22;10410;51.046;6.980;2023-07-31T04:54:05;17.60;99.90
20504;DHT22;10410;51.046;6.980;2023-07-31T05:01:06;17.60;99.90
20504;DHT22;10410;51.046;6.980;2023-07-31T05:08:06;17.50;99.90
20504;DHT22;10410;51.046;6.980;2023-07-31T05:15:07;17.60;99.90
20504;DHT22;10410;51.046;6.980;2023-07-31T05:22:07;17.60;99.90
20504;DHT22;10410;51.046;6.980;2023-07-31T05:29:08;17.20;99.90
20504;DHT22;10410;51.046;6.980;2023-07-31T05:36:08;17.60;99.90
20504;DHT22;10410;51.046;6.980;2023-07-31T05:43:09;17.80;99.90
20504;DHT22;10410;51.046;6.980;2023-07-31T05:50:10;17.90;99.90
20504;DHT22;10410;51.046;6.980;2023-07-31T05:57:10;18.00;99.90
20504;DHT22;10410;51.046;6.980;2023-07-31T06:04:11;18.00;99.90
20504;DHT22;10410;51.046;6.980;2023-07-31T06:11:12;18.10;99.90
20504;DHT22;10410;51.046;6.980;2023-07-31T06:18:12;18.00;99.90
20504;DHT22;10410;51.046;6.980;2023-07-31T06:25:13;17.90;99.90
20504;DHT22;10410;51.046;6.980;2023-07-31T06:32:15;17.80;99.90
20504;DHT22;10410;51.046;6.980;2023-07-31T06:39:16;17.70;99.90
20504;DHT22;10410;51.046;6.980;2023-07-31T06:46:16;17.60;99.90
20504;DHT22;10410;51.046;6.980;2023-07-31T06:53:17;17.60;99.90
20504;DHT22;10410;51.046;6.980;2023-07-31T07:00:18;17.60;99.90
20504;DHT22;10410;51.046;6.980;2023-07-31T07:07:19;17.60;99.90
20504;DHT22;10410;51.046;6.980;2023-07-31T07:14:19;17.70;99.90
20504;DHT22;10410;51.046;6.980;2023-07-31T07:21:20;17.70;99.90
20504;DHT22;10410;51.046;6.980;2023-07-31T07:28:20;17.80;99.90
20504;DHT22;10410;51.046;6.980;2023-07-31T07:35:21;17.80;99.90
20504;DHT22;10410;51.046;6.980;2023-07-31T07:42:22;17.90;99.90
20504;DHT22;10410;51.046;6.980;2023-07-31T07:49:23;17.80;99.90
20504;DHT22;10410;51.046;6.980;2023-07-31T07:56:25;17.70;99.90
20504;DHT22;10410;51.046;6.980;2023-07-31T08:03:26;17.60;99.90
20504;DHT22;10410;51.046;6.980;2023-07-31T08:10:27;17.50;99.90
20504;DHT22;10410;51.046;6.980;2023-07-31T08:17:27;17.50;99.90
20504;DHT22;10410;51.046;6.980;2023-07-31T08:24:28;17.40;99.90
20504;DHT22;10410;51.046;6.980;2023-07-31T08:31:28;17.40;99.90
20504;DHT22;10410;51.046;6.980;2023-07-31T08:38:29;17.30;99.90
20504;DHT22;10410;51.046;6.980;2023-07-31T08:45:30;17.30;99.90
20504;DHT22;10410;51.046;6.980;2023-07-31T08:52:31;17.40;99.90
20504;DHT22;10410;51.046;6.980;2023-07-31T08:59:31;17.50;99.90
20504;DHT22;10410;51.046;6.980;2023-07-31T09:06:34;17.50;99.90
20504;DHT22;10410;51.046;6.980;2023-07-31T09:13:34;17.60;99.90
20504;DHT22;10410;51.046;6.980;2023-07-31T09:20:35;17.60;99.90
20504;DHT22;10410;51.046;6.980;2023-07-31T09:28:02;17.80;99.90
20504;DHT22;10410;51.046;6.980;2023-07-31T09:35:27;17.80;99.90
20504;DHT22;10410;51.046;6.980;2023-07-31T09:42:27;17.80;99.90
20504;DHT22;10410;51.046;6.980;2023-07-31T09:49:29;18.00;99.90
20504;DHT22;10410;51.046;6.980;2023-07-31T09:56:32;18.10;99.90
20504;DHT22;10410;51.046;6.980;2023-07-31T10:03:33;18.30;99.90
20504;DHT22;10410;51.046;6.980;2023-07-31T10:10:36;18.50;99.90
20504;DHT22;10410;51.046;6.980;2023-07-31T10:17:38;18.60;99.90
20504;DHT22;10410;51.046;6.980;2023-07-31T10:24:38;18.70;99.90
20504;DHT22;10410;51.046;6.980;2023-07-31T10:31:41;18.90;99.90
20504;DHT22;10410;51.046;6.980;2023-07-31T10:38:41;19.00;99.90
20504;DHT22;10410;51.046;6.980;2023-07-31T10:45:43;19.10;99.90
20504;DHT22;10410;51.046;6.980;2023-07-31T10:52:47;19.00;99.90
20504;DHT22;10410;51.046;6.980;2023-07-31T10:59:50;18.80;99.90
20504;DHT22;10410;51.046;6.980;2023-07-31T11:07:01;18.90;99.90
20504;DHT22;10410;51.046;6.980;2023-07-31T11:14:01;18.80;99.90
20504;DHT22;10410;51.046;6.980;2023-07-31T11:21:02;18.80;99.90
20504;DHT22;10410;51.046;6.980;2023-07-31T11:28:10;18.90;99.90
20504;DHT22;10410;51.046;6.980;2023-07-31T11:35:15;19.20;99.90
20504;DHT22;10410;51.046;6.980;2023-07-31T11:42:15;19.80;99.90
20504;DHT22;10410;51.046;6.980;2023-07-31T11:49:16;19.90;99.90
20504;DHT22;10410;51.046;6.980;2023-07-31T11:56:20;20.00;99.90
20504;DHT22;10410;51.046;6.980;2023-07-31T12:03:21;20.10;99.90
20504;DHT22;10410;51.046;6.980;2023-07-31T12:17:28;20.10;99.90
20504;DHT22;10410;51.046;6.980;2023-07-31T12:24:29;20.10;99.90
20504;DHT22;10410;51.046;6.980;2023-07-31T12:31:29;20.10;99.90
20504;DHT22;10410;51.046;6.980;2023-07-31T12:38:33;20.00;99.90
20504;DHT22;10410;51.046;6.980;2023-07-31T12:45:34;20.00;99.90
20504;DHT22;10410;51.046;6.980;2023-07-31T12:52:35;20.00;99.90
20504;DHT22;10410;51.046;6.980;2023-07-31T12:59:35;20.00;99.90
20504;DHT22;10410;51.046;6.980;2023-07-31T13:06:36;20.10;99.90
20504;DHT22;10410;51.046;6.980;2023-07-31T13:13:37;20.20;99.90
20504;DHT22;10410;51.046;6.980;2023-07-31T13:20:38;20.30;99.90
20504;DHT22;10410;51.046;6.980;2023-07-31T13:27:38;20.50;99.90
20504;DHT22;10410;51.046;6.980;2023-07-31T13:34:39;20.50;99.90
20504;DHT22;10410;51.046;6.980;2023-07-31T13:41:39;20.50;99.90
20504;DHT22;10410;51.046;6.980;2023-07-31T13:48:40;20.70;99.90
20504;DHT22;10410;51.046;6.980;2023-07-31T13:55:40;21.00;99.90
20504;DHT22;10410;51.046;6.980;2023-07-31T14:02:41;21.20;99.90
20504;DHT22;10410;51.046;6.980;2023-07-31T14:09:41;21.70;99.90
20504;DHT22;10410;51.046;6.980;2023-07-31T14:16:42;22.10;99.90
20504;DHT22;10410;51.046;6.980;2023-07-31T14:23:43;22.20;99.90
20504;DHT22;10410;51.046;6.980;2023-07-31T14:30:43;21.90;99.90
20504;DHT22;10410;51.046;6.980;2023-07-31T14:37:44;21.70;99.90
20504;DHT22;10410;51.046;6.980;2023-07-31T14:44:45;21.60;99.90
20504;DHT22;10410;51.046;6.980;2023-07-31T14:51:47;21.40;99.90
20504;DHT22;10410;51.046;6.980;2023-07-31T14:58:47;21.30;99.90
20504;DHT22;10410;51.046;6.980;2023-07-31T15:05:48;21.20;99.90
20504;DHT22;10410;51.046;6.980;2023-07-31T15:12:49;21.30;99.90
20504;DHT22;10410;51.046;6.980;2023-07-31T15:19:50;21.30;99.90
20504;DHT22;10410;51.046;6.980;2023-07-31T15:26:50;21.30;99.90
20504;DHT22;10410;51.046;6.980;2023-07-31T15:33:50;21.10;99.90
20504;DHT22;10410;51.046;6.980;2023-07-31T15:40:51;21.10;99.90
20504;DHT22;10410;51.046;6.980;2023-07-31T15:47:51;21.00;99.90
20504;DHT22;10410;51.046;6.980;2023-07-31T15:54:52;20.90;99.90
20504;DHT22;10410;51.046;6.980;2023-07-31T16:01:52;20.90;99.90
20504;DHT22;10410;51.046;6.980;2023-07-31T16:08:53;20.90;99.90
20504;DHT22;10410;51.046;6.980;2023-07-31T16:15:54;20.60;99.90
20504;DHT22;10410;51.046;6.980;2023-07-31T16:22:55;20.30;99.90
20504;DHT22;10410;51.046;6.980;2023-07-31T16:29:55;19.80;99.90
20504;DHT22;10410;51.046;6.980;2023-07-31T16:37:00;19.70;99.90
20504;DHT22;10410;51.046;6.980;2023-07-31T16:44:01;19.50;99.90
20504;DHT22;10410;51.046;6.980;2023-07-31T16:51:01;19.40;99.90
20504;DHT22;10410;51.046;6.980;2023-07-31T16:58:03;19.20;99.90
20504;DHT22;10410;51.046;6.980;2023-07-31T17:05:04;19.10;99.90
20504;DHT22;10410;51.046;6.980;2023-07-31T17:12:06;18.90;99.90
20504;DHT22;10410;51.046;6.980;2023-07-31T17:19:06;18.70;99.90
20504;DHT22;10410;51.046;6.980;2023-07-31T17:26:07;18.60;99.90
20504;DHT22;10410;51.046;6.980;2023-07-31T17:33:12;18.40;99.90
20504;DHT22;10410;51.046;6.980;2023-07-31T17:40:13;18.40;99.90
20504;DHT22;10410;51.046;6.980;2023-07-31T17:47:13;18.30;99.90
20504;DHT22;10410;51.046;6.980;2023-07-31T17:54:14;18.20;99.90
20504;DHT22;10410;51.046;6.980;2023-07-31T18:01:14;18.10;99.90
20504;DHT22;10410;51.046;6.980;2023-07-31T18:08:15;18.10;99.90
20504;DHT22;10410;51.046;6.980;2023-07-31T18:15:15;18.00;99.90
20504;DHT22;10410;51.046;6.980;2023-07-31T18:22:16;18.00;99.90
20504;DHT22;10410;51.046;6.980;2023-07-31T18:29:17;18.00;99.90
20504;DHT22;10410;51.046;6.980;2023-07-31T18:36:18;17.90;99.90
20504;DHT22;10410;51.046;6.980;2023-07-31T18:43:19;17.90;99.90
20504;DHT22;10410;51.046;6.980;2023-07-31T18:50:19;17.80;99.90
20504;DHT22;10410;51.046;6.980;2023-07-31T18:57:20;17.80;99.90
20504;DHT22;10410;51.046;6.980;2023-07-31T19:04:20;17.70;99.90
20504;DHT22;10410;51.046;6.980;2023-07-31T19:11:21;17.70;99.90
20504;DHT22;10410;51.046;6.980;2023-07-31T19:18:32;17.60;99.90
20504;DHT22;10410;51.046;6.980;2023-07-31T19:25:33;17.60;99.90
20504;DHT22;10410;51.046;6.980;2023-07-31T19:32:33;17.60;99.90
20504;DHT22;10410;51.046;6.980;2023-07-31T19:39:34;17.50;99.90
20504;DHT22;10410;51.046;6.980;2023-07-31T19:46:34;17.50;99.90
20504;DHT22;10410;51.046;6.980;2023-07-31T19:53:35;17.50;99.90
20504;DHT22;10410;51.046;6.980;2023-07-31T20:00:36;17.40;99.90
20504;DHT22;10410;51.046;6.980;2023-07-31T20:07:36;17.50;99.90
20504;DHT22;10410;51.046;6.980;2023-07-31T20:14:37;17.50;99.90
20504;DHT22;10410;51.046;6.980;2023-07-31T20:21:38;17.50;99.90
20504;DHT22;10410;51.046;6.980;2023-07-31T20:28:39;17.50;99.90
20504;DHT22;10410;51.046;6.980;2023-07-31T20:35:40;17.50;99.90
20504;DHT22;10410;51.046;6.980;2023-07-31T20:42:40;17.50;99.90
20504;DHT22;10410;51.046;6.980;2023-07-31T20:49:41;17.50;99.90
20504;DHT22;10410;51.046;6.980;2023-07-31T20:56:41;17.50;99.90
20504;DHT22;10410;51.046;6.980;2023-07-31T21:03:41;17.50;99.90
20504;DHT22;10410;51.046;6.980;2023-07-31T21:10:42;17.50;99.90
20504;DHT22;10410;51.046;6.980;2023-07-31T21:17:42;17.50;99.90
20504;DHT22;10410;51.046;6.980;2023-07-31T21:24:44;17.50;99.90
20504;DHT22;10410;51.046;6.980;2023-07-31T21:31:44;17.50;99.90
20504;DHT22;10410;51.046;6.980;2023-07-31T21:38:45;17.40;99.90
20504;DHT22;10410;51.046;6.980;2023-07-31T21:45:45;17.40;99.90
20504;DHT22;10410;51.046;6.980;2023-07-31T21:52:46;17.30;99.90
20504;DHT22;10410;51.046;6.980;2023-07-31T21:59:47;17.30;99.90
20504;DHT22;10410;51.046;6.980;2023-07-31T22:06:47;17.30;99.90
20504;DHT22;10410;51.046;6.980;2023-07-31T22:13:49;17.20;99.90
20504;DHT22;10410;51.046;6.980;2023-07-31T22:20:49;17.20;99.90
20504;DHT22;10410;51.046;6.980;2023-07-31T22:27:50;17.20;99.90
20504;DHT22;10410;51.046;6.980;2023-07-31T22:34:50;17.10;99.90
20504;DHT22;10410;51.046;6.980;2023-07-31T22:41:51;17.10;99.90
20504;DHT22;10410;51.046;6.980;2023-07-31T22:48:52;17.10;99.90
20504;DHT22;10410;51.046;6.980;2023-07-31T22:55:54;17.10;99.90
20504;DHT22;10410;51.046;6.980;2023-07-31T23:02:54;17.10;99.90
20504;DHT22;10410;51.046;6.980;2023-07-31T23:09:55;17.10;99.90
20504;DHT22;10410;51.046;6.980;2023-07-31T23:16:55;17.00;99.90
20504;DHT22;10410;51.046;6.980;2023-07-31T23:23:56;17.00;99.90
20504;DHT22;10410;51.046;6.980;2023-07-31T23:31:03;17.00;99.90
20504;DHT22;10410;51.046;6.980;2023-07-31T23:38:03;17.00;99.90
20504;DHT22;10410;51.046;6.980;2023-07-31T23:45:09;17.00;99.90
20504;DHT22;10410;51.046;6.980;2023-07-31T23:52:11;17.00;99.90
20504;DHT22;10410;51.046;6.980;2023-07-31T23:59:12;17.10;99.90
